createdAt,value
2018-06-03T00:00:03.646Z,0
2018-06-03T00:01:08.761Z,0
2018-06-03T00:02:13.917Z,0
2018-06-03T00:03:19.349Z,0
2018-06-03T00:04:25.185Z,0
2018-06-03T00:05:30.358Z,0
2018-06-03T00:06:36.047Z,0
2018-06-03T00:07:41.483Z,0
2018-06-03T00:08:46.632Z,0
2018-06-03T00:09:52.031Z,0
2018-06-03T00:10:56.916Z,0
2018-06-03T00:12:02.071Z,0
2018-06-03T00:13:07.765Z,0
2018-06-03T00:14:12.349Z,0
2018-06-03T00:15:17.509Z,0
2018-06-03T00:16:22.916Z,0
2018-06-03T00:17:28.059Z,0
2018-06-03T00:18:33.940Z,0
2018-06-03T00:19:39.390Z,0
2018-06-03T00:20:44.255Z,0
2018-06-03T00:21:50.247Z,0
2018-06-03T00:22:55.678Z,0
2018-06-03T00:24:01.112Z,0
2018-06-03T00:25:06.233Z,0
2018-06-03T00:26:11.805Z,0
2018-06-03T00:27:17.422Z,0
2018-06-03T00:28:22.816Z,0
2018-06-03T00:29:27.960Z,0
2018-06-03T00:30:33.871Z,0
2018-06-03T00:31:38.744Z,0
2018-06-03T00:32:44.178Z,0
2018-06-03T00:33:49.749Z,0
2018-06-03T00:34:54.616Z,0
2018-06-03T00:36:00.052Z,0
2018-06-03T00:37:05.466Z,0
2018-06-03T00:38:10.060Z,0
2018-06-03T00:39:15.505Z,0
2018-06-03T00:40:21.242Z,0
2018-06-03T00:41:26.799Z,0
2018-06-03T00:42:32.455Z,0
2018-06-03T00:43:37.602Z,0
2018-06-03T00:44:42.472Z,0
2018-06-03T00:45:48.133Z,0
2018-06-03T00:46:53.584Z,0
2018-06-03T00:47:58.444Z,0
2018-06-03T00:49:03.845Z,0
2018-06-03T00:50:08.996Z,0
2018-06-03T00:51:14.434Z,0
2018-06-03T00:52:19.970Z,0
2018-06-03T00:53:25.115Z,0
2018-06-03T00:54:30.816Z,0
2018-06-03T00:55:35.959Z,0
2018-06-03T00:56:41.392Z,0
2018-06-03T00:57:46.608Z,0
2018-06-03T00:58:51.763Z,0
2018-06-03T00:59:56.909Z,0
2018-06-03T01:01:02.332Z,0
2018-06-03T01:02:07.212Z,0
2018-06-03T01:03:12.671Z,0
2018-06-03T01:04:18.354Z,0
2018-06-03T01:05:23.507Z,0
2018-06-03T01:06:29.389Z,0
2018-06-03T01:07:34.437Z,0
2018-06-03T01:08:39.590Z,0
2018-06-03T01:09:45.194Z,0
2018-06-03T01:10:50.370Z,0
2018-06-03T01:11:55.528Z,0
2018-06-03T01:13:01.210Z,0
2018-06-03T01:14:05.533Z,0
2018-06-03T01:15:10.422Z,0
2018-06-03T01:16:16.101Z,0
2018-06-03T01:17:21.532Z,0
2018-06-03T01:18:27.387Z,0
2018-06-03T01:19:32.866Z,0
2018-06-03T01:20:38.034Z,0
2018-06-03T01:21:43.729Z,0
2018-06-03T01:22:48.635Z,0
2018-06-03T01:23:54.068Z,0
2018-06-03T01:24:59.851Z,0
2018-06-03T01:26:04.720Z,0
2018-06-03T01:27:09.611Z,0
2018-06-03T01:28:15.294Z,0
2018-06-03T01:29:20.190Z,0
2018-06-03T01:30:40.879Z,0
2018-06-03T01:31:46.319Z,0
2018-06-03T01:32:51.749Z,0
2018-06-03T01:33:57.151Z,0
2018-06-03T01:35:02.020Z,0
2018-06-03T01:36:07.177Z,0
2018-06-03T01:37:12.707Z,0
2018-06-03T01:38:17.851Z,0
2018-06-03T01:39:22.719Z,0
2018-06-03T01:40:27.754Z,0
2018-06-03T01:41:32.911Z,0
2018-06-03T01:42:38.052Z,0
2018-06-03T01:43:43.206Z,0
2018-06-03T01:44:48.637Z,0
2018-06-03T01:45:54.152Z,0
2018-06-03T01:46:59.031Z,0
2018-06-03T01:48:04.461Z,0
2018-06-03T01:49:09.975Z,0
2018-06-03T01:50:15.133Z,0
2018-06-03T01:51:20.579Z,0
2018-06-03T01:52:25.812Z,0
2018-06-03T01:53:30.673Z,0
2018-06-03T01:54:36.228Z,0
2018-06-03T01:55:41.105Z,0
2018-06-03T01:56:46.260Z,0
2018-06-03T01:57:52.051Z,0
2018-06-03T01:58:57.194Z,0
2018-06-03T02:00:02.362Z,0
2018-06-03T02:01:07.481Z,0
2018-06-03T02:02:12.913Z,0
2018-06-03T02:03:18.074Z,0
2018-06-03T02:04:23.856Z,0
2018-06-03T02:05:29.061Z,0
2018-06-03T02:06:34.564Z,0
2018-06-03T02:07:39.995Z,0
2018-06-03T02:08:45.428Z,0
2018-06-03T02:09:51.033Z,0
2018-06-03T02:10:56.472Z,0
2018-06-03T02:12:01.637Z,0
2018-06-03T02:13:06.570Z,0
2018-06-03T02:14:11.712Z,0
2018-06-03T02:15:16.590Z,0
2018-06-03T02:16:21.997Z,0
2018-06-03T02:17:27.430Z,0
2018-06-03T02:18:33.380Z,0
2018-06-03T02:19:38.822Z,0
2018-06-03T02:20:44.278Z,0
2018-06-03T02:21:49.957Z,0
2018-06-03T02:22:55.396Z,0
2018-06-03T02:24:00.560Z,0
2018-06-03T02:25:05.691Z,0
2018-06-03T02:26:10.572Z,0
2018-06-03T02:27:15.738Z,0
2018-06-03T02:28:21.573Z,0
2018-06-03T02:29:26.732Z,0
2018-06-03T02:30:32.031Z,0
2018-06-03T02:31:37.187Z,0
2018-06-03T02:32:42.346Z,0
2018-06-03T02:33:47.988Z,0
2018-06-03T02:34:52.575Z,0
2018-06-03T02:35:58.006Z,0
2018-06-03T02:37:02.855Z,0
2018-06-03T02:38:07.725Z,0
2018-06-03T02:39:13.179Z,0
2018-06-03T02:40:18.308Z,0
2018-06-03T02:41:23.737Z,0
2018-06-03T02:42:28.915Z,0
2018-06-03T02:43:33.217Z,0
2018-06-03T02:44:38.650Z,0
2018-06-03T02:45:44.059Z,0
2018-06-03T02:46:49.504Z,0
2018-06-03T02:47:54.961Z,0
2018-06-03T02:49:00.080Z,0
2018-06-03T02:50:05.238Z,0
2018-06-03T02:51:09.833Z,0
2018-06-03T02:52:15.657Z,0
2018-06-03T02:53:20.535Z,0
2018-06-03T02:54:40.876Z,0
2018-06-03T02:55:46.328Z,0
2018-06-03T02:56:51.501Z,0
2018-06-03T02:57:57.381Z,0
2018-06-03T02:59:02.814Z,0
2018-06-03T03:00:08.244Z,0
2018-06-03T03:01:13.643Z,0
2018-06-03T03:02:19.102Z,0
2018-06-03T03:03:24.276Z,0
2018-06-03T03:04:30.032Z,0
2018-06-03T03:05:35.524Z,0
2018-06-03T03:06:41.303Z,0
2018-06-03T03:07:46.169Z,0
2018-06-03T03:08:51.352Z,0
2018-06-03T03:09:56.903Z,0
2018-06-03T03:11:02.066Z,0
2018-06-03T03:12:06.667Z,0
2018-06-03T03:13:11.769Z,0
2018-06-03T03:14:16.929Z,0
2018-06-03T03:15:22.380Z,0
2018-06-03T03:16:28.098Z,0
2018-06-03T03:17:32.974Z,0
2018-06-03T03:18:38.862Z,0
2018-06-03T03:19:44.024Z,0
2018-06-03T03:20:48.328Z,0
2018-06-03T03:21:53.738Z,0
2018-06-03T03:22:58.894Z,0
2018-06-03T03:24:03.766Z,0
2018-06-03T03:25:09.308Z,0
2018-06-03T03:26:14.736Z,0
2018-06-03T03:27:20.176Z,0
2018-06-03T03:28:25.017Z,0
2018-06-03T03:29:29.916Z,0
2018-06-03T03:30:35.901Z,0
2018-06-03T03:31:41.339Z,0
2018-06-03T03:32:46.502Z,0
2018-06-03T03:33:52.180Z,0
2018-06-03T03:34:57.630Z,0
2018-06-03T03:36:02.789Z,0
2018-06-03T03:37:08.473Z,0
2018-06-03T03:38:13.615Z,0
2018-06-03T03:39:19.062Z,0
2018-06-03T03:40:24.741Z,0
2018-06-03T03:41:29.610Z,0
2018-06-03T03:42:34.828Z,0
2018-06-03T03:43:40.267Z,0
2018-06-03T03:44:45.726Z,0
2018-06-03T03:45:50.847Z,0
2018-06-03T03:46:55.705Z,0
2018-06-03T03:48:00.322Z,0
2018-06-03T03:49:05.868Z,0
2018-06-03T03:50:11.022Z,0
2018-06-03T03:51:15.616Z,0
2018-06-03T03:52:21.297Z,0
2018-06-03T03:53:26.441Z,0
2018-06-03T03:54:32.301Z,0
2018-06-03T03:55:37.168Z,0
2018-06-03T03:56:42.312Z,0
2018-06-03T03:57:47.997Z,6
2018-06-03T03:58:53.176Z,6
2018-06-03T03:59:58.031Z,6
2018-06-03T04:01:02.710Z,6
2018-06-03T04:02:07.021Z,6
2018-06-03T04:03:12.188Z,6
2018-06-03T04:04:17.347Z,6
2018-06-03T04:05:22.496Z,6
2018-06-03T04:06:27.977Z,6
2018-06-03T04:07:33.497Z,6
2018-06-03T04:08:38.648Z,6
2018-06-03T04:09:44.493Z,6
2018-06-03T04:10:49.654Z,6
2018-06-03T04:11:53.966Z,6
2018-06-03T04:12:59.173Z,6
2018-06-03T04:14:04.605Z,6
2018-06-03T04:15:09.777Z,6
2018-06-03T04:16:15.280Z,6
2018-06-03T04:17:20.434Z,6
2018-06-03T04:18:40.636Z,6
2018-06-03T04:19:46.071Z,6
2018-06-03T04:20:51.525Z,6
2018-06-03T04:21:57.360Z,6
2018-06-03T04:23:02.243Z,6
2018-06-03T04:24:07.384Z,6
2018-06-03T04:25:12.556Z,6
2018-06-03T04:26:17.712Z,6
2018-06-03T04:27:22.885Z,6
2018-06-03T04:28:28.479Z,6
2018-06-03T04:29:33.062Z,6
2018-06-03T04:30:38.555Z,6
2018-06-03T04:31:43.700Z,6
2018-06-03T04:32:48.563Z,6
2018-06-03T04:33:53.705Z,6
2018-06-03T04:34:59.130Z,6
2018-06-03T04:36:04.563Z,6
2018-06-03T04:37:09.677Z,6
2018-06-03T04:38:14.848Z,6
2018-06-03T04:39:20.000Z,6
2018-06-03T04:40:25.706Z,6
2018-06-03T04:41:30.586Z,6
2018-06-03T04:42:36.238Z,6
2018-06-03T04:43:41.389Z,6
2018-06-03T04:44:46.250Z,6
2018-06-03T04:45:51.379Z,6
2018-06-03T04:46:56.285Z,6
2018-06-03T04:48:01.716Z,6
2018-06-03T04:49:06.446Z,6
2018-06-03T04:50:11.592Z,6
2018-06-03T04:51:17.044Z,6
2018-06-03T04:52:22.198Z,6
2018-06-03T04:53:27.351Z,6
2018-06-03T04:54:32.764Z,6
2018-06-03T04:55:38.206Z,6
2018-06-03T04:56:43.074Z,6
2018-06-03T04:57:48.470Z,6
2018-06-03T04:58:53.345Z,6
2018-06-03T04:59:58.511Z,6
2018-06-03T05:01:03.887Z,6
2018-06-03T05:02:09.044Z,6
2018-06-03T05:03:14.477Z,6
2018-06-03T05:04:19.613Z,6
2018-06-03T05:05:25.073Z,6
2018-06-03T05:06:30.801Z,6
2018-06-03T05:07:36.331Z,6
2018-06-03T05:08:40.917Z,6
2018-06-03T05:09:46.196Z,6
2018-06-03T05:10:51.642Z,6
2018-06-03T05:11:56.823Z,24
2018-06-03T05:13:01.955Z,24
2018-06-03T05:14:06.820Z,24
2018-06-03T05:15:11.987Z,24
2018-06-03T05:16:17.680Z,24
2018-06-03T05:17:23.109Z,24
2018-06-03T05:18:28.661Z,24
2018-06-03T05:19:33.843Z,24
2018-06-03T05:20:38.997Z,24
2018-06-03T05:21:44.114Z,24
2018-06-03T05:22:49.003Z,24
2018-06-03T05:23:54.146Z,24
2018-06-03T05:24:59.143Z,40
2018-06-03T05:26:04.005Z,40
2018-06-03T05:27:09.476Z,40
2018-06-03T05:28:15.045Z,40
2018-06-03T05:29:20.191Z,40
2018-06-03T05:30:40.409Z,40
2018-06-03T05:31:45.846Z,40
2018-06-03T05:32:51.298Z,40
2018-06-03T05:33:56.144Z,40
2018-06-03T05:35:01.008Z,40
2018-06-03T05:36:06.161Z,40
2018-06-03T05:37:11.555Z,40
2018-06-03T05:38:17.013Z,40
2018-06-03T05:39:22.456Z,40
2018-06-03T05:40:28.161Z,40
2018-06-03T05:41:33.594Z,40
2018-06-03T05:42:39.276Z,40
2018-06-03T05:43:43.635Z,40
2018-06-03T05:44:48.501Z,40
2018-06-03T05:45:54.196Z,40
2018-06-03T05:46:59.069Z,40
2018-06-03T05:48:03.660Z,40
2018-06-03T05:49:09.072Z,40
2018-06-03T05:50:13.949Z,40
2018-06-03T05:51:19.099Z,40
2018-06-03T05:52:24.507Z,40
2018-06-03T05:53:29.659Z,40
2018-06-03T05:54:35.062Z,40
2018-06-03T05:55:40.233Z,40
2018-06-03T05:56:45.404Z,40
2018-06-03T05:57:51.284Z,40
2018-06-03T05:58:56.753Z,40
2018-06-03T06:00:01.626Z,40
2018-06-03T06:01:06.470Z,55
2018-06-03T06:02:11.632Z,55
2018-06-03T06:03:17.081Z,55
2018-06-03T06:04:23.014Z,31
2018-06-03T06:05:28.465Z,31
2018-06-03T06:06:34.276Z,31
2018-06-03T06:07:38.590Z,31
2018-06-03T06:08:43.448Z,31
2018-06-03T06:09:48.639Z,31
2018-06-03T06:10:53.807Z,31
2018-06-03T06:11:58.677Z,31
2018-06-03T06:13:04.304Z,48
2018-06-03T06:14:09.459Z,48
2018-06-03T06:15:14.324Z,48
2018-06-03T06:16:19.741Z,48
2018-06-03T06:17:24.605Z,48
2018-06-03T06:18:30.115Z,48
2018-06-03T06:19:35.560Z,48
2018-06-03T06:20:40.728Z,48
2018-06-03T06:21:46.282Z,48
2018-06-03T06:22:51.759Z,64
2018-06-03T06:23:56.916Z,64
2018-06-03T06:25:02.708Z,64
2018-06-03T06:26:07.868Z,64
2018-06-03T06:27:12.748Z,64
2018-06-03T06:28:18.534Z,64
2018-06-03T06:29:24.125Z,64
2018-06-03T06:30:29.134Z,64
2018-06-03T06:31:34.298Z,64
2018-06-03T06:32:39.453Z,64
2018-06-03T06:33:44.857Z,64
2018-06-03T06:34:50.255Z,64
2018-06-03T06:35:55.617Z,48
2018-06-03T06:37:01.311Z,48
2018-06-03T06:38:06.470Z,31
2018-06-03T06:39:11.908Z,31
2018-06-03T06:40:17.214Z,31
2018-06-03T06:41:22.644Z,55
2018-06-03T06:42:27.963Z,55
2018-06-03T06:43:33.396Z,55
2018-06-03T06:44:38.555Z,55
2018-06-03T06:45:43.950Z,31
2018-06-03T06:46:49.110Z,31
2018-06-03T06:47:53.693Z,31
2018-06-03T06:48:59.394Z,31
2018-06-03T06:50:04.170Z,31
2018-06-03T06:51:09.122Z,31
2018-06-03T06:52:14.699Z,31
2018-06-03T06:53:20.138Z,31
2018-06-03T06:54:25.323Z,31
2018-06-03T06:55:30.539Z,31
2018-06-03T06:56:35.683Z,48
2018-06-03T06:57:40.798Z,48
2018-06-03T06:58:45.679Z,48
2018-06-03T06:59:51.133Z,48
2018-06-03T07:00:56.542Z,31
2018-06-03T07:02:01.705Z,31
2018-06-03T07:03:06.294Z,31
2018-06-03T07:04:11.613Z,31
2018-06-03T07:05:16.478Z,31
2018-06-03T07:06:21.632Z,31
2018-06-03T07:07:27.622Z,31
2018-06-03T07:08:32.801Z,31
2018-06-03T07:09:38.433Z,31
2018-06-03T07:10:43.299Z,31
2018-06-03T07:11:48.466Z,31
2018-06-03T07:12:53.698Z,31
2018-06-03T07:13:58.836Z,55
2018-06-03T07:15:03.992Z,55
2018-06-03T07:16:08.855Z,55
2018-06-03T07:17:13.732Z,31
2018-06-03T07:18:18.923Z,31
2018-06-03T07:19:23.847Z,31
2018-06-03T07:20:29.346Z,48
2018-06-03T07:21:35.038Z,48
2018-06-03T07:22:40.469Z,48
2018-06-03T07:23:44.769Z,48
2018-06-03T07:24:49.899Z,48
2018-06-03T07:25:55.044Z,48
2018-06-03T07:27:00.229Z,48
2018-06-03T07:28:05.759Z,48
2018-06-03T07:29:10.924Z,48
2018-06-03T07:30:16.356Z,48
2018-06-03T07:31:22.063Z,48
2018-06-03T07:32:27.480Z,64
2018-06-03T07:33:32.598Z,64
2018-06-03T07:34:37.753Z,80
2018-06-03T07:35:42.912Z,80
2018-06-03T07:36:48.697Z,72
2018-06-03T07:37:53.574Z,88
2018-06-03T07:38:58.441Z,88
2018-06-03T07:40:04.397Z,104
2018-06-03T07:41:09.562Z,95
2018-06-03T07:42:14.993Z,112
2018-06-03T07:43:20.270Z,103
2018-06-03T07:44:25.423Z,143
2018-06-03T07:45:30.744Z,159
2018-06-03T07:46:35.913Z,159
2018-06-03T07:47:41.356Z,159
2018-06-03T07:48:46.901Z,159
2018-06-03T07:49:52.355Z,150
2018-06-03T07:50:57.504Z,159
2018-06-03T07:52:02.646Z,136
2018-06-03T07:53:07.516Z,143
2018-06-03T07:54:12.946Z,152
2018-06-03T07:55:18.642Z,152
2018-06-03T07:56:24.070Z,127
2018-06-03T07:57:29.622Z,143
2018-06-03T07:58:34.780Z,159
2018-06-03T07:59:39.657Z,176
2018-06-03T08:00:44.738Z,167
2018-06-03T08:01:49.351Z,150
2018-06-03T08:02:53.963Z,183
2018-06-03T08:03:59.081Z,174
2018-06-03T08:05:03.948Z,191
2018-06-03T08:06:08.838Z,191
2018-06-03T08:07:14.245Z,207
2018-06-03T08:08:19.684Z,191
2018-06-03T08:09:39.572Z,207
2018-06-03T08:10:45.002Z,207
2018-06-03T08:11:49.932Z,207
2018-06-03T08:12:55.596Z,174
2018-06-03T08:14:00.194Z,143
2018-06-03T08:15:05.088Z,119
2018-06-03T08:16:10.476Z,112
2018-06-03T08:17:15.902Z,95
2018-06-03T08:18:20.770Z,79
2018-06-03T08:19:26.184Z,104
2018-06-03T08:20:31.633Z,88
2018-06-03T08:21:37.146Z,72
2018-06-03T08:22:42.077Z,72
2018-06-03T08:23:47.241Z,72
2018-06-03T08:24:52.556Z,55
2018-06-03T08:25:57.171Z,55
2018-06-03T08:27:02.335Z,55
2018-06-03T08:28:07.687Z,55
2018-06-03T08:29:12.841Z,55
2018-06-03T08:30:18.003Z,55
2018-06-03T08:31:23.406Z,55
2018-06-03T08:32:28.004Z,55
2018-06-03T08:33:33.523Z,55
2018-06-03T08:34:38.666Z,55
2018-06-03T08:35:43.819Z,55
2018-06-03T08:36:49.505Z,55
2018-06-03T08:37:54.384Z,72
2018-06-03T08:38:59.563Z,72
2018-06-03T08:40:04.754Z,72
2018-06-03T08:41:09.947Z,72
2018-06-03T08:42:14.834Z,88
2018-06-03T08:43:20.046Z,88
2018-06-03T08:44:25.486Z,88
2018-06-03T08:45:31.081Z,88
2018-06-03T08:46:36.258Z,88
2018-06-03T08:47:41.891Z,88
2018-06-03T08:48:47.185Z,104
2018-06-03T08:49:52.335Z,104
2018-06-03T08:50:57.211Z,79
2018-06-03T08:52:02.709Z,79
2018-06-03T08:53:07.625Z,79
2018-06-03T08:54:13.063Z,95
2018-06-03T08:55:18.468Z,95
2018-06-03T08:56:23.620Z,95
2018-06-03T08:57:29.653Z,95
2018-06-03T08:58:34.810Z,95
2018-06-03T08:59:39.964Z,95
2018-06-03T09:00:45.751Z,112
2018-06-03T09:01:50.618Z,112
2018-06-03T09:02:55.774Z,112
2018-06-03T09:04:01.312Z,128
2018-06-03T09:05:06.181Z,128
2018-06-03T09:06:11.618Z,128
2018-06-03T09:07:17.410Z,103
2018-06-03T09:08:22.564Z,119
2018-06-03T09:09:27.611Z,119
2018-06-03T09:10:32.765Z,136
2018-06-03T09:11:38.195Z,136
2018-06-03T09:12:44.053Z,136
2018-06-03T09:13:49.204Z,136
2018-06-03T09:14:54.653Z,152
2018-06-03T09:16:00.155Z,127
2018-06-03T09:17:05.020Z,143
2018-06-03T09:18:09.898Z,143
2018-06-03T09:19:15.578Z,159
2018-06-03T09:20:20.753Z,159
2018-06-03T09:21:40.582Z,159
2018-06-03T09:22:45.730Z,159
2018-06-03T09:23:50.894Z,159
2018-06-03T09:24:56.724Z,159
2018-06-03T09:26:02.387Z,159
2018-06-03T09:27:06.689Z,159
2018-06-03T09:28:12.372Z,159
2018-06-03T09:29:17.809Z,176
2018-06-03T09:30:23.257Z,176
2018-06-03T09:31:28.804Z,167
2018-06-03T09:32:34.278Z,150
2018-06-03T09:33:39.967Z,176
2018-06-03T09:34:44.921Z,167
2018-06-03T09:35:49.818Z,167
2018-06-03T09:36:55.367Z,167
2018-06-03T09:38:00.251Z,167
2018-06-03T09:39:05.400Z,176
2018-06-03T09:40:11.106Z,176
2018-06-03T09:41:15.970Z,167
2018-06-03T09:42:20.551Z,183
2018-06-03T09:43:25.386Z,183
2018-06-03T09:44:30.576Z,231
2018-06-03T09:45:36.303Z,191
2018-06-03T09:46:41.172Z,191
2018-06-03T09:47:46.606Z,191
2018-06-03T09:48:52.288Z,191
2018-06-03T09:49:57.443Z,207
2018-06-03T09:51:01.481Z,191
2018-06-03T09:52:06.886Z,200
2018-06-03T09:53:12.361Z,200
2018-06-03T09:54:17.799Z,191
2018-06-03T09:55:22.649Z,174
2018-06-03T09:56:28.117Z,224
2018-06-03T09:57:33.675Z,238
2018-06-03T09:58:39.108Z,174
2018-06-03T09:59:44.573Z,174
2018-06-03T10:00:50.090Z,200
2018-06-03T10:01:54.967Z,183
2018-06-03T10:03:00.398Z,167
2018-06-03T10:04:05.334Z,167
2018-06-03T10:05:09.912Z,182
2018-06-03T10:06:15.344Z,176
2018-06-03T10:07:21.132Z,159
2018-06-03T10:08:26.307Z,159
2018-06-03T10:09:32.090Z,159
2018-06-03T10:10:37.523Z,150
2018-06-03T10:11:42.389Z,150
2018-06-03T10:12:48.171Z,159
2018-06-03T10:13:53.327Z,159
2018-06-03T10:14:58.757Z,143
2018-06-03T10:16:04.191Z,127
2018-06-03T10:17:09.092Z,152
2018-06-03T10:18:14.249Z,136
2018-06-03T10:19:19.366Z,136
2018-06-03T10:20:24.801Z,152
2018-06-03T10:21:30.873Z,136
2018-06-03T10:22:36.233Z,119
2018-06-03T10:23:41.419Z,119
2018-06-03T10:24:47.249Z,119
2018-06-03T10:25:52.413Z,119
2018-06-03T10:26:57.649Z,119
2018-06-03T10:28:03.664Z,103
2018-06-03T10:29:08.544Z,103
2018-06-03T10:30:13.704Z,103
2018-06-03T10:31:19.398Z,103
2018-06-03T10:32:24.551Z,128
2018-06-03T10:33:30.387Z,128
2018-06-03T10:34:35.586Z,112
2018-06-03T10:35:40.731Z,112
2018-06-03T10:36:46.296Z,112
2018-06-03T10:37:51.754Z,112
2018-06-03T10:38:56.898Z,112
2018-06-03T10:40:02.038Z,95
2018-06-03T10:41:05.741Z,95
2018-06-03T10:42:10.905Z,95
2018-06-03T10:43:15.831Z,79
2018-06-03T10:44:20.973Z,79
2018-06-03T10:45:27.276Z,79
2018-06-03T10:46:32.739Z,79
2018-06-03T10:47:37.885Z,79
2018-06-03T10:48:43.454Z,79
2018-06-03T10:49:48.250Z,79
2018-06-03T10:50:53.122Z,79
2018-06-03T10:51:58.229Z,79
2018-06-03T10:53:03.050Z,79
2018-06-03T10:54:07.938Z,79
2018-06-03T10:55:13.349Z,79
2018-06-03T10:56:18.794Z,79
2018-06-03T10:57:23.688Z,79
2018-06-03T10:58:43.557Z,79
2018-06-03T10:59:48.262Z,79
2018-06-03T11:00:54.228Z,79
2018-06-03T11:01:59.666Z,95
2018-06-03T11:03:05.096Z,95
2018-06-03T11:04:10.373Z,95
2018-06-03T11:05:15.534Z,95
2018-06-03T11:06:20.694Z,95
2018-06-03T11:07:26.090Z,95
2018-06-03T11:08:31.239Z,112
2018-06-03T11:09:36.921Z,112
2018-06-03T11:10:42.078Z,112
2018-06-03T11:11:47.255Z,112
2018-06-03T11:12:52.126Z,112
2018-06-03T11:13:57.557Z,112
2018-06-03T11:15:02.154Z,112
2018-06-03T11:16:07.898Z,112
2018-06-03T11:17:13.061Z,112
2018-06-03T11:18:17.954Z,112
2018-06-03T11:19:23.643Z,112
2018-06-03T11:20:28.849Z,112
2018-06-03T11:21:34.756Z,112
2018-06-03T11:22:39.630Z,112
2018-06-03T11:23:45.070Z,112
2018-06-03T11:24:50.753Z,112
2018-06-03T11:25:56.182Z,112
2018-06-03T11:27:01.191Z,112
2018-06-03T11:28:06.067Z,112
2018-06-03T11:29:11.506Z,112
2018-06-03T11:30:16.413Z,112
2018-06-03T11:31:22.148Z,112
2018-06-03T11:32:27.588Z,112
2018-06-03T11:33:32.862Z,112
2018-06-03T11:34:38.018Z,112
2018-06-03T11:35:43.170Z,112
2018-06-03T11:36:48.287Z,128
2018-06-03T11:37:52.597Z,128
2018-06-03T11:38:58.030Z,128
2018-06-03T11:40:02.742Z,103
2018-06-03T11:41:08.175Z,103
2018-06-03T11:42:13.611Z,103
2018-06-03T11:43:19.386Z,119
2018-06-03T11:44:24.550Z,119
2018-06-03T11:45:30.489Z,119
2018-06-03T11:46:35.954Z,119
2018-06-03T11:47:41.394Z,119
2018-06-03T11:48:46.950Z,136
2018-06-03T11:49:52.138Z,136
2018-06-03T11:50:57.024Z,136
2018-06-03T11:52:02.164Z,136
2018-06-03T11:53:07.057Z,152
2018-06-03T11:54:11.958Z,152
2018-06-03T11:55:17.177Z,152
2018-06-03T11:56:22.058Z,152
2018-06-03T11:57:27.222Z,152
2018-06-03T11:58:32.377Z,152
2018-06-03T11:59:37.257Z,152
2018-06-03T12:00:42.567Z,127
2018-06-03T12:01:47.547Z,127
2018-06-03T12:02:53.156Z,127
2018-06-03T12:03:58.679Z,127
2018-06-03T12:05:03.857Z,143
2018-06-03T12:06:09.018Z,143
2018-06-03T12:07:13.897Z,143
2018-06-03T12:08:19.484Z,143
2018-06-03T12:09:24.925Z,143
2018-06-03T12:10:29.832Z,143
2018-06-03T12:11:35.259Z,143
2018-06-03T12:12:40.761Z,143
2018-06-03T12:13:45.908Z,159
2018-06-03T12:14:51.046Z,159
2018-06-03T12:15:56.607Z,159
2018-06-03T12:17:01.202Z,159
2018-06-03T12:18:06.350Z,159
2018-06-03T12:19:12.045Z,159
2018-06-03T12:20:16.940Z,159
2018-06-03T12:21:22.099Z,159
2018-06-03T12:22:27.719Z,159
2018-06-03T12:23:32.875Z,159
2018-06-03T12:24:38.151Z,159
2018-06-03T12:25:43.587Z,159
2018-06-03T12:26:48.462Z,159
2018-06-03T12:27:54.151Z,159
2018-06-03T12:28:59.496Z,159
2018-06-03T12:30:04.653Z,159
2018-06-03T12:31:10.343Z,159
2018-06-03T12:32:15.221Z,159
2018-06-03T12:33:20.396Z,159
2018-06-03T12:34:25.615Z,159
2018-06-03T12:35:30.767Z,159
2018-06-03T12:36:36.151Z,159
2018-06-03T12:37:41.300Z,176
2018-06-03T12:38:46.169Z,150
2018-06-03T12:39:51.668Z,167
2018-06-03T12:40:57.098Z,167
2018-06-03T12:42:02.254Z,167
2018-06-03T12:43:07.874Z,150
2018-06-03T12:44:13.024Z,176
2018-06-03T12:45:18.178Z,176
2018-06-03T12:46:23.291Z,176
2018-06-03T12:47:28.150Z,150
2018-06-03T12:48:34.083Z,150
2018-06-03T12:49:39.511Z,150
2018-06-03T12:50:44.949Z,150
2018-06-03T12:51:50.082Z,150
2018-06-03T12:52:55.236Z,176
2018-06-03T12:54:00.670Z,176
2018-06-03T12:55:05.517Z,176
2018-06-03T12:56:10.391Z,176
2018-06-03T12:57:15.547Z,176
2018-06-03T12:58:20.951Z,150
2018-06-03T12:59:25.834Z,167
2018-06-03T13:00:31.408Z,167
2018-06-03T13:01:36.860Z,183
2018-06-03T13:02:42.018Z,200
2018-06-03T13:03:47.696Z,167
2018-06-03T13:04:52.270Z,150
2018-06-03T13:05:57.421Z,176
2018-06-03T13:07:03.103Z,167
2018-06-03T13:08:07.958Z,167
2018-06-03T13:09:13.399Z,167
2018-06-03T13:10:19.089Z,167
2018-06-03T13:11:23.949Z,183
2018-06-03T13:12:29.835Z,191
2018-06-03T13:13:34.979Z,191
2018-06-03T13:14:40.134Z,174
2018-06-03T13:15:45.543Z,174
2018-06-03T13:16:50.719Z,200
2018-06-03T13:17:55.598Z,183
2018-06-03T13:19:01.367Z,183
2018-06-03T13:20:06.000Z,183
2018-06-03T13:21:10.311Z,167
2018-06-03T13:22:15.820Z,167
2018-06-03T13:23:20.808Z,167
2018-06-03T13:24:26.367Z,183
2018-06-03T13:25:31.802Z,183
2018-06-03T13:26:37.236Z,183
2018-06-03T13:27:43.074Z,183
2018-06-03T13:28:47.967Z,183
2018-06-03T13:29:53.401Z,183
2018-06-03T13:30:59.091Z,200
2018-06-03T13:32:04.577Z,200
2018-06-03T13:33:09.453Z,200
2018-06-03T13:34:15.149Z,183
2018-06-03T13:35:20.583Z,183
2018-06-03T13:36:40.846Z,183
2018-06-03T13:37:45.727Z,200
2018-06-03T13:38:50.876Z,200
2018-06-03T13:39:56.709Z,183
2018-06-03T13:41:02.144Z,183
2018-06-03T13:42:06.676Z,183
2018-06-03T13:43:11.521Z,183
2018-06-03T13:44:16.687Z,183
2018-06-03T13:45:22.115Z,183
2018-06-03T13:46:28.023Z,200
2018-06-03T13:47:33.201Z,191
2018-06-03T13:48:39.037Z,207
2018-06-03T13:49:44.469Z,191
2018-06-03T13:50:49.914Z,191
2018-06-03T13:51:55.460Z,200
2018-06-03T13:53:00.610Z,200
2018-06-03T13:54:04.627Z,183
2018-06-03T13:55:10.360Z,183
2018-06-03T13:56:15.802Z,183
2018-06-03T13:57:21.273Z,167
2018-06-03T13:58:27.302Z,167
2018-06-03T13:59:32.177Z,167
2018-06-03T14:00:37.595Z,167
2018-06-03T14:01:41.950Z,167
2018-06-03T14:02:47.103Z,167
2018-06-03T14:03:52.793Z,167
2018-06-03T14:04:58.245Z,167
2018-06-03T14:06:02.849Z,183
2018-06-03T14:07:08.284Z,183
2018-06-03T14:08:13.738Z,200
2018-06-03T14:09:18.619Z,191
2018-06-03T14:10:24.398Z,191
2018-06-03T14:11:29.846Z,191
2018-06-03T14:12:35.681Z,191
2018-06-03T14:13:41.125Z,191
2018-06-03T14:14:46.580Z,191
2018-06-03T14:15:51.797Z,191
2018-06-03T14:16:57.240Z,200
2018-06-03T14:18:02.113Z,200
2018-06-03T14:19:07.346Z,200
2018-06-03T14:20:12.203Z,200
2018-06-03T14:21:17.370Z,200
2018-06-03T14:22:23.211Z,200
2018-06-03T14:23:28.366Z,183
2018-06-03T14:24:33.210Z,183
2018-06-03T14:25:38.365Z,183
2018-06-03T14:26:43.524Z,167
2018-06-03T14:27:48.976Z,167
2018-06-03T14:28:53.270Z,167
2018-06-03T14:29:58.443Z,167
2018-06-03T14:31:03.558Z,167
2018-06-03T14:32:08.719Z,183
2018-06-03T14:33:13.890Z,167
2018-06-03T14:34:19.575Z,167
2018-06-03T14:35:24.794Z,192
2018-06-03T14:36:30.000Z,167
2018-06-03T14:37:35.154Z,167
2018-06-03T14:38:40.046Z,183
2018-06-03T14:39:45.327Z,183
2018-06-03T14:40:50.486Z,183
2018-06-03T14:41:55.912Z,183
2018-06-03T14:43:01.432Z,183
2018-06-03T14:44:05.735Z,183
2018-06-03T14:45:10.316Z,191
2018-06-03T14:46:15.721Z,183
2018-06-03T14:47:20.028Z,183
2018-06-03T14:48:25.733Z,167
2018-06-03T14:49:31.180Z,167
2018-06-03T14:50:36.455Z,183
2018-06-03T14:51:42.074Z,200
2018-06-03T14:52:47.224Z,191
2018-06-03T14:53:52.659Z,191
2018-06-03T14:54:57.893Z,200
2018-06-03T14:56:03.044Z,200
2018-06-03T14:57:07.910Z,200
2018-06-03T14:58:13.367Z,207
2018-06-03T14:59:18.749Z,200
2018-06-03T15:00:23.625Z,183
2018-06-03T15:01:29.365Z,183
2018-06-03T15:02:34.575Z,183
2018-06-03T15:03:40.176Z,167
2018-06-03T15:04:45.335Z,167
2018-06-03T15:05:50.793Z,183
2018-06-03T15:06:55.950Z,183
2018-06-03T15:08:01.437Z,200
2018-06-03T15:09:06.087Z,200
2018-06-03T15:10:11.494Z,200
2018-06-03T15:11:16.660Z,216
2018-06-03T15:12:21.532Z,207
2018-06-03T15:13:41.632Z,216
2018-06-03T15:14:47.120Z,216
2018-06-03T15:15:52.273Z,231
2018-06-03T15:16:57.427Z,255
2018-06-03T15:18:02.596Z,231
2018-06-03T15:19:08.160Z,231
2018-06-03T15:20:13.069Z,224
2018-06-03T15:21:18.566Z,247
2018-06-03T15:22:23.796Z,255
2018-06-03T15:23:28.954Z,271
2018-06-03T15:24:34.520Z,246
2018-06-03T15:25:39.955Z,264
2018-06-03T15:26:45.434Z,231
2018-06-03T15:27:51.396Z,271
2018-06-03T15:28:55.980Z,262